createdAt,value
2022-12-08T00:01:24.575Z,99525.84
2022-12-08T00:03:52.174Z,99529.28
2022-12-08T00:06:50.044Z,99525.81
2022-12-08T00:09:39.447Z,99523.25
2022-12-08T00:12:13.249Z,99530.88
2022-12-08T00:14:45.866Z,99533.41
2022-12-08T00:17:14.581Z,99555.53
2022-12-08T00:19:42.392Z,99545.31
2022-12-08T00:22:11.013Z,99556.44
2022-12-08T00:24:39.999Z,99548.69
2022-12-08T00:27:08.837Z,99558.09
2022-12-08T00:29:36.058Z,99552.94
2022-12-08T00:32:03.334Z,99564.88
2022-12-08T00:34:31.509Z,99561.38
2022-12-08T00:36:58.515Z,99552.94
2022-12-08T00:39:25.568Z,99564.84
2022-12-08T00:42:11.096Z,99558.88
2022-12-08T00:44:38.864Z,99565.66
2022-12-08T00:47:05.913Z,99560.56
2022-12-08T00:49:32.933Z,99556.19
2022-12-08T00:52:00.226Z,99557.03
2022-12-08T00:54:27.226Z,99567.16
2022-12-08T00:56:54.318Z,99556.91
2022-12-08T00:59:21.394Z,99551.81
2022-12-08T01:01:48.688Z,99568.81
2022-12-08T01:04:17.975Z,99573.88
2022-12-08T01:06:45.713Z,99560.31
2022-12-08T01:09:15.707Z,99579.06
2022-12-08T01:11:44.703Z,99517.22
2022-12-08T01:14:12.737Z,99584.22
2022-12-08T01:16:41.663Z,99588.41
2022-12-08T01:19:12.192Z,99598.63
2022-12-08T01:21:40.428Z,99596.94
2022-12-08T01:24:08.035Z,99598.69
2022-12-08T01:26:35.089Z,99594.44
2022-12-08T01:29:02.155Z,99593.50
2022-12-08T01:31:29.256Z,99599.47
2022-12-08T01:33:56.804Z,99592.66
2022-12-08T01:36:29.115Z,99596.88
2022-12-08T01:38:58.744Z,99601.13
2022-12-08T01:41:30.509Z,99584.00
2022-12-08T01:44:10.904Z,99590.88
2022-12-08T01:46:41.129Z,99599.34
2022-12-08T01:49:24.903Z,99599.28
2022-12-08T01:52:30.476Z,99600.00
2022-12-08T01:55:10.768Z,99594.00
2022-12-08T01:57:44.256Z,99603.19
2022-12-08T02:00:15.070Z,99603.91
2022-12-08T02:03:07.249Z,99595.06
2022-12-08T02:05:39.979Z,99607.97
2022-12-08T02:08:10.830Z,99620.69
2022-12-08T02:10:41.169Z,99612.25
2022-12-08T02:13:12.584Z,99615.59
2022-12-08T02:15:53.577Z,99617.28
2022-12-08T02:19:28.577Z,99622.44
2022-12-08T02:22:04.898Z,99630.88
2022-12-08T02:24:40.250Z,99624.19
2022-12-08T02:27:36.748Z,99634.31
2022-12-08T02:30:22.266Z,99631.81
2022-12-08T02:33:14.205Z,99636.91
2022-12-08T02:36:01.149Z,99632.66
2022-12-08T02:38:31.010Z,99642.84
2022-12-08T02:41:01.078Z,99642.72
2022-12-08T02:43:44.102Z,99646.13
2022-12-08T02:46:22.055Z,99652.97
2022-12-08T02:48:51.744Z,99646.19
2022-12-08T02:51:19.975Z,99655.50
2022-12-08T02:53:48.209Z,99651.28
2022-12-08T02:56:15.234Z,99660.59
2022-12-08T02:58:51.165Z,99660.56
2022-12-08T03:01:18.232Z,99664.81
2022-12-08T03:04:06.303Z,99668.28
2022-12-08T03:06:50.653Z,99658.88
2022-12-08T03:09:43.649Z,99649.50
2022-12-08T03:12:16.796Z,99652.00
2022-12-08T03:14:48.376Z,99650.25
2022-12-08T03:17:19.613Z,99656.16
2022-12-08T03:19:49.127Z,99656.22
2022-12-08T03:22:20.172Z,99663.94
2022-12-08T03:24:47.519Z,99661.38
2022-12-08T03:27:21.174Z,99662.28
2022-12-08T03:29:51.070Z,99654.53
2022-12-08T03:32:36.537Z,99663.97
2022-12-08T03:35:09.679Z,99663.06
2022-12-08T03:37:38.574Z,99663.00
2022-12-08T03:40:08.844Z,99662.97
2022-12-08T03:42:35.833Z,99661.19
2022-12-08T03:45:03.358Z,99658.59
2022-12-08T03:47:30.434Z,99654.16
2022-12-08T03:49:57.513Z,99657.59
2022-12-08T03:52:24.741Z,99658.44
2022-12-08T03:54:51.766Z,99654.16
2022-12-08T03:57:18.761Z,99659.25
2022-12-08T03:59:45.748Z,99659.25
2022-12-08T04:02:12.849Z,99643.78
2022-12-08T04:04:40.073Z,99641.19
2022-12-08T04:07:07.193Z,99663.41
2022-12-08T04:09:34.245Z,99648.88
2022-12-08T04:12:01.233Z,99656.53
2022-12-08T04:14:28.263Z,99655.66
2022-12-08T04:16:55.362Z,99659.94
2022-12-08T04:19:22.460Z,99649.78
2022-12-08T04:21:49.558Z,99645.44
2022-12-08T04:24:16.607Z,99657.41
2022-12-08T04:26:43.795Z,99653.00
2022-12-08T04:29:10.835Z,99657.16
2022-12-08T04:31:38.235Z,99660.63
2022-12-08T04:34:05.340Z,99658.81
2022-12-08T04:36:32.474Z,99661.34
2022-12-08T04:38:59.473Z,99664.84
2022-12-08T04:41:26.629Z,99664.06
2022-12-08T04:43:53.684Z,99670.84
2022-12-08T04:46:20.830Z,99660.63
2022-12-08T04:48:48.001Z,99664.97
2022-12-08T04:51:19.475Z,99665.91
2022-12-08T04:53:47.533Z,99663.34
2022-12-08T04:56:19.483Z,99667.63
2022-12-08T04:58:46.560Z,99658.41
2022-12-08T05:01:14.218Z,99669.34
2022-12-08T05:03:41.331Z,99666.06
2022-12-08T05:06:11.124Z,99664.22
2022-12-08T05:08:38.174Z,99664.34
2022-12-08T05:11:07.684Z,99657.47
2022-12-08T05:13:34.895Z,99655.75
2022-12-08T05:16:07.938Z,99667.56
2022-12-08T05:18:35.756Z,99659.03
2022-12-08T05:21:03.613Z,99642.69
2022-12-08T05:23:30.719Z,99660.75
2022-12-08T05:25:58.397Z,99659.03
2022-12-08T05:28:41.405Z,99659.81
2022-12-08T05:31:10.290Z,99664.13
2022-12-08T05:33:37.375Z,99659.03
2022-12-08T05:36:04.610Z,99652.09
2022-12-08T05:38:31.661Z,99658.97
2022-12-08T05:40:58.820Z,99646.94
2022-12-08T05:43:25.867Z,99660.53
2022-12-08T05:45:52.895Z,99662.25
2022-12-08T05:48:19.926Z,99660.50
2022-12-08T05:50:48.257Z,99667.38
2022-12-08T05:53:17.012Z,99673.34
2022-12-08T05:55:44.739Z,99672.56
2022-12-08T05:58:17.898Z,99672.66
2022-12-08T06:00:45.893Z,99671.84
2022-12-08T06:03:14.258Z,99668.44
2022-12-08T06:05:42.835Z,99672.72
2022-12-08T06:08:10.480Z,99666.75
2022-12-08T06:10:45.474Z,99664.13
2022-12-08T06:13:13.283Z,99675.19
2022-12-08T06:15:40.754Z,99676.00
2022-12-08T06:18:08.769Z,99681.09
2022-12-08T06:20:35.868Z,99642.50
2022-12-08T06:23:03.684Z,99679.38
2022-12-08T06:25:30.949Z,99660.41
2022-12-08T06:27:58.044Z,99675.88
2022-12-08T06:30:25.071Z,99663.03
2022-12-08T06:32:52.270Z,99672.41
2022-12-08T06:35:19.412Z,99675.94
2022-12-08T06:37:46.448Z,99671.69
2022-12-08T06:40:13.908Z,99672.69
2022-12-08T06:42:43.919Z,99667.63
2022-12-08T06:45:20.079Z,99665.97
2022-12-08T06:47:47.150Z,99668.50
2022-12-08T06:50:15.062Z,99665.97
2022-12-08T06:52:55.790Z,99671.00
2022-12-08T06:55:59.430Z,99674.38
2022-12-08T06:58:16.174Z,99671.75
2022-12-08T07:00:43.978Z,99670.78
2022-12-08T07:03:11.955Z,99689.56
2022-12-08T07:05:39.466Z,99689.63
2022-12-08T07:08:08.911Z,99682.81
2022-12-08T07:10:36.505Z,99687.06
2022-12-08T07:13:04.200Z,99697.25
2022-12-08T07:15:31.291Z,99691.31
2022-12-08T07:18:00.243Z,99688.84
2022-12-08T07:20:28.392Z,99693.19
2022-12-08T07:22:55.504Z,99700.81
2022-12-08T07:25:22.652Z,99684.59
2022-12-08T07:27:51.754Z,99708.47
2022-12-08T07:30:19.168Z,99699.94
2022-12-08T07:32:46.613Z,99699.94
2022-12-08T07:35:13.956Z,99696.47
2022-12-08T07:37:41.064Z,99698.22
2022-12-08T07:40:09.347Z,99697.38
2022-12-08T07:42:36.474Z,99686.25
2022-12-08T07:45:03.760Z,99693.06
2022-12-08T07:47:31.118Z,99688.84
2022-12-08T07:49:58.159Z,99676.06
2022-12-08T07:52:25.344Z,99688.06
2022-12-08T07:54:52.404Z,99682.91
2022-12-08T07:57:19.449Z,99684.75
2022-12-08T07:59:46.448Z,99676.25
2022-12-08T08:02:26.283Z,99686.41
2022-12-08T08:04:53.775Z,99679.63
2022-12-08T08:07:21.037Z,99678.00
2022-12-08T08:09:48.113Z,99682.38
2022-12-08T08:12:30.705Z,99682.44
2022-12-08T08:14:59.219Z,99673.13
2022-12-08T08:17:26.390Z,99669.78
2022-12-08T08:19:53.563Z,99671.56
2022-12-08T08:22:20.594Z,99669.97
2022-12-08T08:24:47.583Z,99659.81
2022-12-08T08:27:14.746Z,99659.06
2022-12-08T08:29:41.876Z,99666.75
2022-12-08T08:32:09.065Z,99666.03
2022-12-08T08:34:36.154Z,99655.00
2022-12-08T08:37:03.286Z,99666.88
2022-12-08T08:39:31.997Z,99661.84
2022-12-08T08:41:59.298Z,99656.84
2022-12-08T08:44:26.478Z,99657.00
2022-12-08T08:46:53.752Z,99658.75
2022-12-08T08:49:21.547Z,99658.81
2022-12-08T08:51:48.654Z,99659.66
2022-12-08T08:54:15.925Z,99650.38
2022-12-08T08:56:43.022Z,99653.94
2022-12-08T08:59:10.911Z,99652.25
2022-12-08T09:01:37.969Z,99648.06
2022-12-08T09:04:05.285Z,99652.34
2022-12-08T09:06:32.566Z,99648.13
2022-12-08T09:08:59.835Z,99632.78
2022-12-08T09:11:26.951Z,99648.19
2022-12-08T09:13:54.843Z,99642.16
2022-12-08T09:16:23.078Z,99646.47
2022-12-08T09:18:50.856Z,99640.53
2022-12-08T09:21:26.092Z,99639.75
2022-12-08T09:23:55.346Z,99633.81
2022-12-08T09:26:23.426Z,99631.31
2022-12-08T09:28:51.903Z,99630.47
2022-12-08T09:31:20.751Z,99628.75
2022-12-08T09:33:48.426Z,99625.41
2022-12-08T09:36:15.788Z,99620.31
2022-12-08T09:38:42.820Z,99606.69
2022-12-08T09:41:38.960Z,99608.44
2022-12-08T09:44:33.294Z,99599.97
2022-12-08T09:47:01.915Z,99596.56
2022-12-08T09:49:40.276Z,99597.41
2022-12-08T09:52:19.043Z,99594.81
2022-12-08T09:54:46.197Z,99598.22
2022-12-08T09:57:19.718Z,99598.22
2022-12-08T09:59:53.598Z,99598.22
2022-12-08T10:02:26.837Z,99598.28
2022-12-08T10:04:56.317Z,99591.59
2022-12-08T10:07:45.563Z,99586.53
2022-12-08T10:10:21.468Z,99593.38
2022-12-08T10:12:59.890Z,99586.53
2022-12-08T10:15:46.317Z,99582.34
2022-12-08T10:18:19.500Z,99580.72
2022-12-08T10:20:49.315Z,99581.63
2022-12-08T10:23:29.149Z,99574.88
2022-12-08T10:26:26.587Z,99574.81
2022-12-08T10:28:53.743Z,99574.88
2022-12-08T10:31:23.856Z,99567.31
2022-12-08T10:34:01.286Z,99564.75
2022-12-08T10:36:51.521Z,99563.09
2022-12-08T10:39:33.495Z,99564.81
2022-12-08T10:42:02.964Z,99563.09
2022-12-08T10:44:30.258Z,99564.84
2022-12-08T10:46:58.710Z,99552.16
2022-12-08T10:49:32.495Z,99559.03
2022-12-08T10:51:59.667Z,99555.66
2022-12-08T10:54:34.589Z,99542.03
2022-12-08T10:57:02.012Z,99561.63
2022-12-08T10:59:29.447Z,99543.75
2022-12-08T11:01:57.772Z,99551.50
2022-12-08T11:04:36.718Z,99549.88
2022-12-08T11:07:06.552Z,99544.78
2022-12-08T11:09:50.965Z,99535.50
2022-12-08T11:12:22.325Z,99546.50
2022-12-08T11:15:01.621Z,99538.03
2022-12-08T11:17:35.999Z,99532.97
2022-12-08T11:20:22.574Z,99531.25
2022-12-08T11:22:55.242Z,99535.56
2022-12-08T11:25:26.149Z,99527.09
2022-12-08T11:27:57.539Z,99534.66
2022-12-08T11:30:49.039Z,99536.38
2022-12-08T11:33:16.069Z,99536.38
2022-12-08T11:35:52.051Z,99530.41
2022-12-08T11:38:25.051Z,99533.84
2022-12-08T11:41:12.301Z,99528.81
2022-12-08T11:43:48.501Z,99511.53
2022-12-08T11:46:21.313Z,99536.47
2022-12-08T11:48:55.057Z,99543.25
2022-12-08T11:51:32.532Z,99537.31
2022-12-08T11:54:02.313Z,99535.66
2022-12-08T11:56:40.610Z,99541.56
2022-12-08T11:59:31.790Z,99541.56
2022-12-08T12:02:01.127Z,99533.06
2022-12-08T12:04:50.964Z,99535.53
2022-12-08T12:07:23.021Z,99536.47
2022-12-08T12:10:14.886Z,99539.81
2022-12-08T12:13:13.608Z,99523.72
2022-12-08T12:16:22.034Z,99522.91
2022-12-08T12:19:03.429Z,99522.88
2022-12-08T12:21:40.161Z,99525.50
2022-12-08T12:24:10.203Z,99523.81
2022-12-08T12:27:10.178Z,99521.31
2022-12-08T12:29:39.040Z,99516.25
2022-12-08T12:32:08.888Z,99514.63
2022-12-08T12:34:39.294Z,99513.81
2022-12-08T12:37:11.336Z,99513.81
2022-12-08T12:39:53.102Z,99512.16
2022-12-08T12:42:42.691Z,99513.00
2022-12-08T12:45:20.172Z,99507.91
2022-12-08T12:47:56.232Z,99513.84
2022-12-08T12:50:43.811Z,99509.63
2022-12-08T12:53:16.528Z,99507.91
2022-12-08T12:55:46.575Z,99507.91
2022-12-08T12:58:36.664Z,99502.84
2022-12-08T13:01:15.327Z,99511.34
2022-12-08T13:03:49.960Z,99503.69
2022-12-08T13:06:38.302Z,99497.78
2022-12-08T13:09:07.466Z,99491.91
2022-12-08T13:11:51.505Z,99487.63
2022-12-08T13:14:29.634Z,99493.56
2022-12-08T13:16:59.223Z,99491.88
2022-12-08T13:19:29.662Z,99497.88
2022-12-08T13:21:56.844Z,99493.56
2022-12-08T13:24:29.620Z,99494.47
2022-12-08T13:27:05.771Z,99498.72
2022-12-08T13:29:34.117Z,99506.38
2022-12-08T13:32:02.019Z,99508.06
2022-12-08T13:34:33.420Z,99498.72
2022-12-08T13:37:09.143Z,99502.97
2022-12-08T13:39:39.207Z,99497.81
2022-12-08T13:42:29.336Z,99497.81
2022-12-08T13:45:30.152Z,99497.78
2022-12-08T13:54:56.034Z,99491.00
2022-12-08T13:57:05.133Z,99496.13
2022-12-08T13:59:34.533Z,99499.56
2022-12-08T14:02:30.344Z,99500.38
2022-12-08T14:07:47.013Z,99478.13
2022-12-08T14:10:21.101Z,99499.56
2022-12-08T14:12:55.525Z,99485.03
2022-12-08T14:15:22.857Z,99489.31
2022-12-08T14:17:57.575Z,99492.69
2022-12-08T14:20:33.814Z,99496.91
2022-12-08T14:23:09.943Z,99484.94
2022-12-08T14:25:38.901Z,99489.22
2022-12-08T14:28:06.095Z,99497.72
2022-12-08T14:30:34.775Z,99502.78
2022-12-08T14:33:04.701Z,99494.19
2022-12-08T14:35:39.094Z,99507.84
2022-12-08T14:38:13.897Z,99494.16
2022-12-08T14:40:46.699Z,99494.97
2022-12-08T14:43:20.079Z,99497.53
2022-12-08T14:45:48.443Z,99495.84
2022-12-08T14:48:38.930Z,99497.56
2022-12-08T14:51:12.691Z,99504.38
2022-12-08T14:54:06.711Z,99517.13
2022-12-08T14:56:38.851Z,99500.94
2022-12-08T14:59:38.296Z,99510.41
2022-12-08T15:02:20.003Z,99512.97
2022-12-08T15:04:56.305Z,99514.66
2022-12-08T15:07:26.314Z,99507.88
2022-12-08T15:10:26.913Z,99485.53
2022-12-08T15:13:07.563Z,99507.84
2022-12-08T15:15:51.120Z,99506.09
2022-12-08T15:18:21.803Z,99497.56
2022-12-08T15:21:01.566Z,99502.72
2022-12-08T15:23:42.845Z,99502.72
2022-12-08T15:26:23.613Z,99499.28
2022-12-08T15:28:51.421Z,99507.75
2022-12-08T15:31:19.245Z,99504.38
2022-12-08T15:33:46.387Z,99499.31
2022-12-08T15:36:13.499Z,99503.59
2022-12-08T15:38:40.561Z,99495.94
2022-12-08T15:41:13.026Z,99492.47
2022-12-08T15:43:41.860Z,99490.81
2022-12-08T15:46:09.094Z,99499.34
2022-12-08T15:48:37.938Z,99496.78
2022-12-08T15:51:05.273Z,99493.31
2022-12-08T15:53:32.286Z,99487.38
2022-12-08T15:56:26.860Z,99489.06
2022-12-08T15:58:54.754Z,99494.19
2022-12-08T16:01:22.870Z,99495.09
2022-12-08T16:07:19.763Z,99490.84
2022-12-08T16:09:33.572Z,99489.13
2022-12-08T16:12:19.502Z,99487.44
2022-12-08T16:15:47.248Z,99483.13
2022-12-08T16:17:34.287Z,99478.91
2022-12-08T16:20:01.981Z,99473.81
2022-12-08T16:25:22.437Z,99477.28
2022-12-08T16:28:08.255Z,99487.50
2022-12-08T16:30:40.005Z,99486.66
2022-12-08T16:33:07.124Z,99485.84
2022-12-08T16:35:34.203Z,99484.13
2022-12-08T16:38:01.419Z,99487.56
2022-12-08T16:40:28.666Z,99485.84
2022-12-08T16:42:55.723Z,99494.44
2022-12-08T16:45:28.659Z,99490.19
2022-12-08T16:48:00.736Z,99491.03
2022-12-08T16:50:29.533Z,99485.94
2022-12-08T16:52:59.906Z,99482.56
2022-12-08T16:55:27.617Z,99482.53
2022-12-08T16:57:55.184Z,99480.03
2022-12-08T17:00:25.046Z,99491.06
2022-12-08T17:02:53.121Z,99484.31
2022-12-08T17:05:22.810Z,99434.66
2022-12-08T17:07:51.502Z,99475.78
2022-12-08T17:10:25.315Z,99478.31
2022-12-08T17:12:53.488Z,99471.47
2022-12-08T17:15:23.891Z,99480.03
2022-12-08T17:17:51.891Z,99480.88
2022-12-08T17:20:29.682Z,99477.44
2022-12-08T17:22:58.396Z,99484.25
2022-12-08T17:25:26.987Z,99481.72
2022-12-08T17:27:54.763Z,99482.50
2022-12-08T17:30:22.101Z,99470.59
2022-12-08T17:32:49.209Z,99474.09
2022-12-08T17:35:16.383Z,99438.16
2022-12-08T17:37:44.181Z,99465.59
2022-12-08T17:40:11.741Z,99452.84
2022-12-08T17:42:39.192Z,99461.44
2022-12-08T17:45:10.371Z,99457.22
2022-12-08T17:47:37.914Z,99460.66
2022-12-08T17:50:06.861Z,99460.66
2022-12-08T17:52:34.503Z,99462.31
2022-12-08T17:55:01.579Z,99465.81
2022-12-08T17:57:28.690Z,99469.25
2022-12-08T17:59:56.005Z,99462.44
2022-12-08T18:02:23.381Z,99446.16
2022-12-08T18:04:50.594Z,99468.44
2022-12-08T18:07:17.771Z,99470.94
2022-12-08T18:09:44.843Z,99467.59
2022-12-08T18:12:11.985Z,99454.81
2022-12-08T18:14:39.084Z,99452.28
2022-12-08T18:17:06.271Z,99465.91
2022-12-08T18:19:33.744Z,99469.38
2022-12-08T18:22:01.686Z,99462.56
2022-12-08T18:24:28.855Z,99461.72
2022-12-08T18:26:57.606Z,99471.06
2022-12-08T18:29:25.359Z,99456.66
2022-12-08T18:31:52.574Z,99455.78
2022-12-08T18:34:19.988Z,99453.22
2022-12-08T18:36:48.062Z,99435.31
2022-12-08T18:39:32.481Z,99452.41
2022-12-08T18:42:02.770Z,99452.41
2022-12-08T18:44:29.993Z,99457.50
2022-12-08T18:46:57.098Z,99455.84
2022-12-08T18:49:24.096Z,99454.13
2022-12-08T18:51:51.203Z,99454.09
2022-12-08T18:54:22.028Z,99459.25
2022-12-08T18:56:51.617Z,99464.34
2022-12-08T18:59:20.700Z,99466.06
2022-12-08T19:01:47.755Z,99459.22
2022-12-08T19:04:32.643Z,99470.34
2022-12-08T19:07:01.812Z,99466.06
2022-12-08T19:09:29.290Z,99476.28
2022-12-08T19:11:57.315Z,99471.19
2022-12-08T19:14:28.286Z,99478.00
2022-12-08T19:16:59.782Z,99472.88
2022-12-08T19:19:27.799Z,99477.94
2022-12-08T19:21:55.110Z,99484.78
2022-12-08T19:24:22.539Z,99486.47
2022-12-08T19:26:49.810Z,99493.25
2022-12-08T19:29:17.288Z,99489.81
2022-12-08T19:31:44.635Z,99483.84
2022-12-08T19:34:13.699Z,99485.50
2022-12-08T19:36:43.180Z,99488.00
2022-12-08T19:39:46.823Z,99486.31
2022-12-08T19:42:38.681Z,99485.41
2022-12-08T19:45:07.891Z,99487.88
2022-12-08T19:47:35.132Z,99499.84
2022-12-08T19:50:22.515Z,99498.09
2022-12-08T19:52:50.111Z,99494.53
2022-12-08T19:55:17.341Z,99502.97
2022-12-08T19:57:44.483Z,99503.78
2022-12-08T20:00:13.072Z,99514.72
2022-12-08T20:02:40.294Z,99497.53
2022-12-08T20:05:08.925Z,99507.75
2022-12-08T20:07:36.212Z,99511.13
2022-12-08T20:10:07.321Z,99504.19
2022-12-08T20:12:34.581Z,99510.13
2022-12-08T20:15:01.860Z,99510.91
2022-12-08T20:17:28.931Z,99512.59
2022-12-08T20:19:56.009Z,99521.06
2022-12-08T20:22:23.088Z,99522.78
2022-12-08T20:24:58.267Z,99534.69
2022-12-08T20:27:29.272Z,99527.09
2022-12-08T20:29:56.416Z,99538.06
2022-12-08T20:32:23.571Z,99538.06
2022-12-08T20:34:50.796Z,99527.84
2022-12-08T20:37:17.870Z,99528.69
2022-12-08T20:39:44.994Z,99531.22
2022-12-08T20:42:13.986Z,99537.97
2022-12-08T20:44:44.663Z,99543.91
2022-12-08T20:47:13.167Z,99546.50
2022-12-08T20:49:40.439Z,99545.63
2022-12-08T20:52:08.641Z,99548.09
2022-12-08T20:54:37.346Z,99541.22
2022-12-08T20:57:04.930Z,99553.19
2022-12-08T20:59:32.372Z,99551.47
2022-12-08T21:02:00.794Z,99558.25
2022-12-08T21:04:28.293Z,99553.16
2022-12-08T21:06:55.801Z,99551.44
2022-12-08T21:09:23.209Z,99553.97
2022-12-08T21:11:50.429Z,99555.69
2022-12-08T21:14:17.978Z,99560.03
2022-12-08T21:16:45.589Z,99560.84
2022-12-08T21:19:13.088Z,99558.34
2022-12-08T21:21:40.221Z,99549.84
2022-12-08T21:24:07.812Z,99554.13
2022-12-08T21:26:34.872Z,99551.53
2022-12-08T21:29:01.983Z,99559.13
2022-12-08T21:31:31.982Z,99556.44
2022-12-08T21:33:59.918Z,99571.78
2022-12-08T21:36:27.452Z,99558.16
2022-12-08T21:38:55.294Z,99570.16
2022-12-08T21:41:42.115Z,99560.84
2022-12-08T21:44:11.930Z,99561.63
2022-12-08T21:46:39.215Z,99566.75
2022-12-08T21:49:06.724Z,99561.69
2022-12-08T21:51:37.942Z,99560.00
2022-12-08T21:54:05.429Z,99565.97
2022-12-08T21:56:32.635Z,99560.88
2022-12-08T21:58:59.867Z,99558.34
2022-12-08T22:01:27.198Z,99559.16
2022-12-08T22:03:54.812Z,99560.03
2022-12-08T22:06:22.123Z,99552.28
2022-12-08T22:08:49.281Z,99548.00
2022-12-08T22:11:17.077Z,99559.97
2022-12-08T22:13:44.438Z,99560.03
2022-12-08T22:16:14.966Z,99549.84
2022-12-08T22:18:42.608Z,99553.25
2022-12-08T22:21:18.399Z,99558.34
2022-12-08T22:23:45.613Z,99558.28
2022-12-08T22:26:13.541Z,99560.88
2022-12-08T22:28:43.039Z,99563.44
2022-12-08T22:31:18.565Z,99570.25
2022-12-08T22:33:45.995Z,99573.63
2022-12-08T22:36:19.432Z,99570.16
2022-12-08T22:38:47.329Z,99578.81
2022-12-08T22:41:15.413Z,99574.50
2022-12-08T22:43:43.012Z,99574.50
2022-12-08T22:46:14.462Z,99582.16
2022-12-08T22:48:41.884Z,99578.81
2022-12-08T22:51:09.784Z,99577.91
2022-12-08T22:53:37.201Z,99580.50
2022-12-08T22:56:05.777Z,99566.88
2022-12-08T22:58:33.086Z,99577.16
2022-12-08T23:01:00.328Z,99579.72
2022-12-08T23:03:27.462Z,99565.22
2022-12-08T23:05:54.736Z,99580.59
2022-12-08T23:08:21.860Z,99580.59
2022-12-08T23:10:51.070Z,99575.50
2022-12-08T23:13:18.618Z,99565.16
2022-12-08T23:15:46.029Z,99584.00
2022-12-08T23:18:19.274Z,99578.81
2022-12-08T23:20:47.779Z,99577.09
2022-12-08T23:23:15.449Z,99566.88
2022-12-08T23:25:43.861Z,99576.28
2022-12-08T23:28:11.387Z,99573.78
2022-12-08T23:30:41.453Z,99565.31
2022-12-08T23:33:08.619Z,99565.31
2022-12-08T23:35:35.869Z,99564.50
2022-12-08T23:38:03.011Z,99556.78
2022-12-08T23:40:30.540Z,99548.28
2022-12-08T23:42:57.751Z,99556.91
2022-12-08T23:45:24.908Z,99555.16
2022-12-08T23:47:52.309Z,99560.25
2022-12-08T23:50:19.677Z,99568.75
2022-12-08T23:52:46.799Z,99574.66
2022-12-08T23:55:19.461Z,99581.44
2022-12-08T23:57:46.773Z,99575.44
